createdAt,value
2017-03-17T00:00:09.144Z,25.22
2017-03-17T00:00:37.293Z,25.15
2017-03-17T00:01:05.512Z,25.15
2017-03-17T00:01:33.805Z,25.15
2017-03-17T00:02:02.080Z,25.12
2017-03-17T00:02:30.404Z,25.11
2017-03-17T00:02:58.659Z,25.04
2017-03-17T00:03:27.001Z,25.05
2017-03-17T00:03:55.257Z,25.02
2017-03-17T00:04:23.510Z,25.12
2017-03-17T00:04:51.563Z,25.01
2017-03-17T00:05:19.839Z,25.04
2017-03-17T00:05:47.920Z,25.04
2017-03-17T00:06:16.140Z,25.01
2017-03-17T00:06:44.305Z,25.11
2017-03-17T00:07:12.448Z,25.09
2017-03-17T00:07:40.531Z,25.04
2017-03-17T00:08:28.038Z,24.94
2017-03-17T00:08:56.262Z,24.9
2017-03-17T00:09:24.423Z,25.02
2017-03-17T00:09:52.458Z,24.89
2017-03-17T00:10:20.552Z,25
2017-03-17T00:10:48.619Z,24.9
2017-03-17T00:11:16.720Z,24.87
2017-03-17T00:11:44.848Z,25.02
2017-03-17T00:12:13.058Z,24.83
2017-03-17T00:12:41.165Z,24.97
2017-03-17T00:13:09.420Z,24.89
2017-03-17T00:13:37.679Z,24.94
2017-03-17T00:14:05.793Z,24.93
2017-03-17T00:14:33.930Z,24.89
2017-03-17T00:15:02.048Z,24.96
2017-03-17T00:15:30.222Z,24.96
2017-03-17T00:15:58.357Z,24.86
2017-03-17T00:16:26.402Z,24.89
2017-03-17T00:16:54.623Z,24.86
2017-03-17T00:17:22.925Z,25.02
2017-03-17T00:17:51.113Z,25.04
2017-03-17T00:18:19.279Z,24.96
2017-03-17T00:18:47.447Z,25
2017-03-17T00:19:15.437Z,24.97
2017-03-17T00:19:43.700Z,24.86
2017-03-17T00:20:11.752Z,24.85
2017-03-17T00:20:40.047Z,24.83
2017-03-17T00:21:08.229Z,24.78
2017-03-17T00:21:36.427Z,24.89
2017-03-17T00:22:04.546Z,24.85
2017-03-17T00:22:32.659Z,24.75
2017-03-17T00:23:00.835Z,24.78
2017-03-17T00:23:28.958Z,24.7
2017-03-17T00:23:57.218Z,24.74
2017-03-17T00:24:25.456Z,24.74
2017-03-17T00:24:53.655Z,24.77
2017-03-17T00:25:21.772Z,24.75
2017-03-17T00:25:50.009Z,24.7
2017-03-17T00:26:18.108Z,24.7
2017-03-17T00:26:46.241Z,24.69
2017-03-17T00:27:14.387Z,24.61
2017-03-17T00:27:42.472Z,24.67
2017-03-17T00:28:10.666Z,24.63
2017-03-17T00:28:38.871Z,24.64
2017-03-17T00:29:07.026Z,24.64
2017-03-17T00:29:34.964Z,24.67
2017-03-17T00:30:02.947Z,24.54
2017-03-17T00:30:31.090Z,24.58
2017-03-17T00:30:59.169Z,24.61
2017-03-17T00:31:27.294Z,24.52
2017-03-17T00:31:55.309Z,24.59
2017-03-17T00:32:23.248Z,24.61
2017-03-17T00:32:51.480Z,24.61
2017-03-17T00:33:19.424Z,24.48
2017-03-17T00:33:47.652Z,24.52
2017-03-17T00:34:15.851Z,24.52
2017-03-17T00:34:43.993Z,24.51
2017-03-17T00:35:12.118Z,24.48
2017-03-17T00:35:40.244Z,24.51
2017-03-17T00:36:08.364Z,24.58
2017-03-17T00:36:36.292Z,24.46
2017-03-17T00:37:04.420Z,24.45
2017-03-17T00:37:32.528Z,24.51
2017-03-17T00:38:00.518Z,24.44
2017-03-17T00:38:28.774Z,24.45
2017-03-17T00:38:56.788Z,24.46
2017-03-17T00:39:24.916Z,24.44
2017-03-17T00:39:53.114Z,24.46
2017-03-17T00:40:21.147Z,24.42
2017-03-17T00:40:49.381Z,24.49
2017-03-17T00:41:17.617Z,24.45
2017-03-17T00:41:45.677Z,24.48
2017-03-17T00:42:13.869Z,24.42
2017-03-17T00:42:42.010Z,24.36
2017-03-17T00:43:10.187Z,24.46
2017-03-17T00:43:38.309Z,24.44
2017-03-17T00:44:06.209Z,24.4
2017-03-17T00:44:34.340Z,24.42
2017-03-17T00:45:02.383Z,24.37
2017-03-17T00:45:30.535Z,24.45
2017-03-17T00:45:58.674Z,24.37
2017-03-17T00:46:26.765Z,24.39
2017-03-17T00:46:54.774Z,24.39
2017-03-17T00:47:23.032Z,24.44
2017-03-17T00:47:51.244Z,24.33
2017-03-17T00:48:19.400Z,24.44
2017-03-17T00:48:47.721Z,24.48
2017-03-17T00:49:15.844Z,24.49
2017-03-17T00:49:44.028Z,24.46
2017-03-17T00:50:12.066Z,24.4
2017-03-17T00:50:40.223Z,24.48
2017-03-17T00:51:08.331Z,24.48
2017-03-17T00:51:36.501Z,24.48
2017-03-17T00:52:04.564Z,24.49
2017-03-17T00:52:32.723Z,24.49
2017-03-17T00:53:00.717Z,24.52
2017-03-17T00:53:28.745Z,24.48
2017-03-17T00:53:57.072Z,24.52
2017-03-17T00:54:25.357Z,24.51
2017-03-17T00:54:53.489Z,24.46
2017-03-17T00:55:21.723Z,24.42
2017-03-17T00:55:49.774Z,24.48
2017-03-17T00:56:17.960Z,24.36
2017-03-17T00:56:46.139Z,24.42
2017-03-17T00:57:14.365Z,24.44
2017-03-17T00:57:42.384Z,24.49
2017-03-17T00:58:10.601Z,24.42
2017-03-17T00:58:38.804Z,24.37
2017-03-17T00:59:07.075Z,24.48
2017-03-17T00:59:35.240Z,24.44
2017-03-17T01:00:03.474Z,24.45
2017-03-17T01:00:31.497Z,24.39
2017-03-17T01:00:59.598Z,24.42
2017-03-17T01:01:27.666Z,24.42
2017-03-17T01:01:55.863Z,24.44
2017-03-17T01:02:23.918Z,24.44
2017-03-17T01:02:52.046Z,24.39
2017-03-17T01:03:20.173Z,24.39
2017-03-17T01:03:48.394Z,24.39
2017-03-17T01:04:16.525Z,24.44
2017-03-17T01:04:44.541Z,24.32
2017-03-17T01:05:12.702Z,24.37
2017-03-17T01:05:40.697Z,24.3
2017-03-17T01:06:08.711Z,24.27
2017-03-17T01:06:36.722Z,24.3
2017-03-17T01:07:04.931Z,24.34
2017-03-17T01:07:33.136Z,24.3
2017-03-17T01:08:01.130Z,24.27
2017-03-17T01:08:29.302Z,24.33
2017-03-17T01:08:57.685Z,24.26
2017-03-17T01:09:25.680Z,24.27
2017-03-17T01:09:53.904Z,24.29
2017-03-17T01:10:22.074Z,24.36
2017-03-17T01:10:50.189Z,24.33
2017-03-17T01:11:18.246Z,24.27
2017-03-17T01:11:46.315Z,24.3
2017-03-17T01:12:14.237Z,24.3
2017-03-17T01:12:42.377Z,24.26
2017-03-17T01:13:10.612Z,24.21
2017-03-17T01:13:38.746Z,24.26
2017-03-17T01:14:07.189Z,24.36
2017-03-17T01:14:35.296Z,24.29
2017-03-17T01:15:03.537Z,24.26
2017-03-17T01:15:31.474Z,24.29
2017-03-17T01:15:59.600Z,24.29
2017-03-17T01:16:27.722Z,24.29
2017-03-17T01:16:55.910Z,24.24
2017-03-17T01:17:24.040Z,24.44
2017-03-17T01:17:52.002Z,24.32
2017-03-17T01:18:20.170Z,24.29
2017-03-17T01:18:48.350Z,24.39
2017-03-17T01:19:16.825Z,24.44
2017-03-17T01:19:45.056Z,24.44
2017-03-17T01:20:13.277Z,24.4
2017-03-17T01:20:41.308Z,24.45
2017-03-17T01:21:09.523Z,24.4
2017-03-17T01:21:37.709Z,24.44
2017-03-17T01:22:05.816Z,24.44
2017-03-17T01:22:34.008Z,24.45
2017-03-17T01:23:02.147Z,24.37
2017-03-17T01:23:30.233Z,24.45
2017-03-17T01:23:58.448Z,24.48
2017-03-17T01:24:26.600Z,24.4
2017-03-17T01:24:54.853Z,24.49
2017-03-17T01:25:22.918Z,24.48
2017-03-17T01:25:50.990Z,24.52
2017-03-17T01:26:19.219Z,24.52
2017-03-17T01:26:47.464Z,24.51
2017-03-17T01:27:15.646Z,24.59
2017-03-17T01:27:43.673Z,24.58
2017-03-17T01:28:11.744Z,24.55
2017-03-17T01:28:39.982Z,24.63
2017-03-17T01:29:08.088Z,24.64
2017-03-17T01:29:36.282Z,24.61
2017-03-17T01:30:04.362Z,24.54
2017-03-17T01:30:32.582Z,24.52
2017-03-17T01:31:00.720Z,24.59
2017-03-17T01:31:28.645Z,24.61
2017-03-17T01:31:56.897Z,24.61
2017-03-17T01:32:24.981Z,24.66
2017-03-17T01:32:52.999Z,24.67
2017-03-17T01:33:21.129Z,24.63
2017-03-17T01:33:49.253Z,24.67
2017-03-17T01:34:17.469Z,24.7
2017-03-17T01:34:45.612Z,24.71
2017-03-17T01:35:13.634Z,24.69
2017-03-17T01:35:41.694Z,24.7
2017-03-17T01:36:09.780Z,24.7
2017-03-17T01:36:37.910Z,24.69
2017-03-17T01:37:06.063Z,24.67
2017-03-17T01:37:33.886Z,24.67
2017-03-17T01:38:02.072Z,24.71
2017-03-17T01:38:30.087Z,24.71
2017-03-17T01:38:58.193Z,24.66
2017-03-17T01:39:26.512Z,24.69
2017-03-17T01:39:54.604Z,24.67
2017-03-17T01:40:22.850Z,24.69
2017-03-17T01:40:51.069Z,24.67
2017-03-17T01:41:19.177Z,24.71
2017-03-17T01:41:47.330Z,24.77
2017-03-17T01:42:15.491Z,24.69
2017-03-17T01:42:43.627Z,24.74
2017-03-17T01:43:11.741Z,24.75
2017-03-17T01:43:39.992Z,24.75
2017-03-17T01:44:07.862Z,24.75
2017-03-17T01:44:35.959Z,24.75
2017-03-17T01:45:04.217Z,24.75
2017-03-17T01:45:32.455Z,24.77
2017-03-17T01:46:00.440Z,24.83
2017-03-17T01:46:28.568Z,24.66
2017-03-17T01:46:56.629Z,24.82
2017-03-17T01:47:24.729Z,24.69
2017-03-17T01:47:52.970Z,24.69
2017-03-17T01:48:21.150Z,24.7
2017-03-17T01:48:49.315Z,24.69
2017-03-17T01:49:17.525Z,24.82
2017-03-17T01:49:45.760Z,24.67
2017-03-17T01:50:13.799Z,24.82
2017-03-17T01:50:42.028Z,24.7
2017-03-17T01:51:10.237Z,24.69
2017-03-17T01:51:38.443Z,24.71
2017-03-17T01:52:06.716Z,24.69
2017-03-17T01:52:34.847Z,24.69
2017-03-17T01:53:03.043Z,24.82
2017-03-17T01:53:31.290Z,24.77
2017-03-17T01:53:59.423Z,24.75
2017-03-17T01:54:27.706Z,24.67
2017-03-17T01:54:55.775Z,24.67
2017-03-17T01:55:23.961Z,24.74
2017-03-17T01:55:52.160Z,24.74
2017-03-17T01:56:20.229Z,24.69
2017-03-17T01:56:48.494Z,24.69
2017-03-17T01:57:16.783Z,24.69
2017-03-17T01:57:44.847Z,24.67
2017-03-17T01:58:13.074Z,24.64
2017-03-17T01:58:41.305Z,24.74
2017-03-17T01:59:10.299Z,24.7
2017-03-17T01:59:38.429Z,24.66
2017-03-17T02:00:06.468Z,24.67
2017-03-17T02:00:34.611Z,24.74
2017-03-17T02:01:02.719Z,24.74
2017-03-17T02:01:30.791Z,24.67
2017-03-17T02:01:58.958Z,24.71
2017-03-17T02:02:27.160Z,24.67
2017-03-17T02:02:55.284Z,24.7
2017-03-17T02:03:23.404Z,24.66
2017-03-17T02:03:51.584Z,24.66
2017-03-17T02:04:19.573Z,24.8
2017-03-17T02:04:47.851Z,24.71
2017-03-17T02:05:16.079Z,24.7
2017-03-17T02:05:44.339Z,24.83
2017-03-17T02:06:12.503Z,24.69
2017-03-17T02:06:40.722Z,24.7
2017-03-17T02:07:08.929Z,24.75
2017-03-17T02:07:36.822Z,24.82
2017-03-17T02:08:04.915Z,24.74
2017-03-17T02:08:33.166Z,24.71
2017-03-17T02:09:01.348Z,24.83
2017-03-17T02:09:29.629Z,24.71
2017-03-17T02:09:57.849Z,24.74
2017-03-17T02:10:25.908Z,24.67
2017-03-17T02:10:53.839Z,24.66
2017-03-17T02:11:22.127Z,24.74
2017-03-17T02:11:50.161Z,24.74
2017-03-17T02:12:18.237Z,24.78
2017-03-17T02:12:46.448Z,24.66
2017-03-17T02:13:14.489Z,24.77
2017-03-17T02:13:42.728Z,24.82
2017-03-17T02:14:10.902Z,24.69
2017-03-17T02:14:39.319Z,24.78
2017-03-17T02:15:07.554Z,24.69
2017-03-17T02:15:35.810Z,24.69
2017-03-17T02:16:04.059Z,24.8
2017-03-17T02:16:32.215Z,24.74
2017-03-17T02:17:00.377Z,24.85
2017-03-17T02:17:28.430Z,24.77
2017-03-17T02:17:56.691Z,24.86
2017-03-17T02:18:24.864Z,24.77
2017-03-17T02:18:52.840Z,24.78
2017-03-17T02:19:21.147Z,24.71
2017-03-17T02:19:49.671Z,24.75
2017-03-17T02:20:17.906Z,24.86
2017-03-17T02:20:46.059Z,24.83
2017-03-17T02:21:14.124Z,24.8
2017-03-17T02:21:42.253Z,24.86
2017-03-17T02:22:10.406Z,24.86
2017-03-17T02:22:38.487Z,24.89
2017-03-17T02:23:06.702Z,24.9
2017-03-17T02:23:34.617Z,24.82
2017-03-17T02:24:02.881Z,24.93
2017-03-17T02:24:30.939Z,25
2017-03-17T02:24:59.293Z,25.04
2017-03-17T02:25:27.348Z,24.87
2017-03-17T02:25:55.577Z,24.87
2017-03-17T02:26:55.758Z,24.8
2017-03-17T02:27:23.896Z,24.83
2017-03-17T02:27:51.941Z,24.82
2017-03-17T02:28:20.125Z,24.83
2017-03-17T02:28:48.187Z,24.85
2017-03-17T02:29:16.401Z,24.86
2017-03-17T02:29:44.696Z,24.9
2017-03-17T02:30:12.870Z,24.85
2017-03-17T02:30:41.113Z,24.83
2017-03-17T02:31:09.356Z,24.77
2017-03-17T02:31:37.627Z,24.77
2017-03-17T02:32:05.782Z,24.77
2017-03-17T02:32:34.013Z,24.74
2017-03-17T02:33:02.051Z,24.86
2017-03-17T02:33:30.080Z,24.75
2017-03-17T02:33:58.098Z,24.71
2017-03-17T02:34:26.163Z,24.67
2017-03-17T02:34:54.488Z,24.82
2017-03-17T02:35:22.644Z,24.69
2017-03-17T02:35:50.779Z,24.64
2017-03-17T02:36:18.803Z,24.74
2017-03-17T02:36:47.642Z,24.75
2017-03-17T02:37:34.954Z,24.66
2017-03-17T02:38:03.162Z,24.66
2017-03-17T02:38:31.413Z,24.64
2017-03-17T02:38:59.494Z,24.63
2017-03-17T02:39:27.573Z,24.61
2017-03-17T02:39:55.816Z,24.55
2017-03-17T02:40:24.088Z,24.51
2017-03-17T02:40:52.326Z,24.54
2017-03-17T02:41:20.470Z,24.51
2017-03-17T02:41:48.718Z,24.51
2017-03-17T02:42:16.875Z,24.54
2017-03-17T02:42:45.087Z,24.51
2017-03-17T02:43:16.386Z,24.52
2017-03-17T02:43:44.477Z,24.46
2017-03-17T02:44:12.677Z,24.52
2017-03-17T02:44:40.768Z,24.51
2017-03-17T02:45:09.773Z,24.51
2017-03-17T02:45:38.054Z,24.46
2017-03-17T02:46:06.091Z,24.54
2017-03-17T02:46:34.412Z,24.45
2017-03-17T02:47:02.581Z,24.52
2017-03-17T02:47:30.787Z,24.45
2017-03-17T02:47:58.849Z,24.56
2017-03-17T02:48:27.001Z,24.56
2017-03-17T02:48:55.197Z,24.51
2017-03-17T02:49:23.349Z,24.44
2017-03-17T02:49:51.415Z,24.44
2017-03-17T02:50:19.799Z,24.37
2017-03-17T02:50:47.803Z,24.46
2017-03-17T02:51:15.870Z,24.4
2017-03-17T02:51:44.098Z,24.42
2017-03-17T02:52:12.126Z,24.44
2017-03-17T02:52:40.095Z,24.42
2017-03-17T02:53:08.174Z,24.46
2017-03-17T02:53:36.324Z,24.45
2017-03-17T02:54:04.448Z,24.44
2017-03-17T02:54:32.648Z,24.39
2017-03-17T02:55:00.764Z,24.39
2017-03-17T02:55:28.672Z,24.51
2017-03-17T02:55:56.682Z,24.46
2017-03-17T02:56:24.869Z,24.39
2017-03-17T02:56:52.887Z,24.46
2017-03-17T02:57:20.846Z,24.44
2017-03-17T02:57:49.095Z,24.4
2017-03-17T02:58:17.226Z,24.45
2017-03-17T02:58:45.482Z,24.44
2017-03-17T02:59:13.486Z,24.4
2017-03-17T02:59:41.574Z,24.44
2017-03-17T03:00:09.787Z,24.46
2017-03-17T03:00:38.005Z,24.42
2017-03-17T03:01:06.024Z,24.42
2017-03-17T03:01:34.124Z,24.4
2017-03-17T03:02:02.355Z,24.49
2017-03-17T03:02:30.517Z,24.44
2017-03-17T03:02:58.633Z,24.52
2017-03-17T03:03:26.863Z,24.46
2017-03-17T03:03:54.977Z,24.42
2017-03-17T03:04:23.199Z,24.44
2017-03-17T03:04:51.418Z,24.45
2017-03-17T03:05:19.464Z,24.55
2017-03-17T03:05:47.507Z,24.45
2017-03-17T03:06:15.695Z,24.46
2017-03-17T03:06:43.952Z,24.48
2017-03-17T03:07:11.879Z,24.42
2017-03-17T03:07:40.018Z,24.48
2017-03-17T03:08:08.232Z,24.45
2017-03-17T03:08:36.430Z,24.46
2017-03-17T03:09:04.506Z,24.48
2017-03-17T03:09:32.708Z,24.44
2017-03-17T03:10:00.896Z,24.45
2017-03-17T03:10:29.267Z,24.39
2017-03-17T03:10:57.364Z,24.48
2017-03-17T03:11:25.617Z,24.44
2017-03-17T03:11:53.754Z,24.46
2017-03-17T03:12:21.960Z,24.45
2017-03-17T03:12:49.983Z,24.45
2017-03-17T03:13:18.049Z,24.45
2017-03-17T03:13:46.225Z,24.44
2017-03-17T03:14:14.373Z,24.45
2017-03-17T03:14:42.432Z,24.39
2017-03-17T03:15:10.583Z,24.42
2017-03-17T03:15:38.631Z,24.44
2017-03-17T03:16:06.763Z,24.37
2017-03-17T03:16:34.807Z,24.4
2017-03-17T03:17:02.898Z,24.33
2017-03-17T03:17:30.986Z,24.45
2017-03-17T03:17:59.171Z,24.4
2017-03-17T03:18:27.167Z,24.33
2017-03-17T03:18:55.400Z,24.32
2017-03-17T03:19:23.578Z,24.3
2017-03-17T03:19:51.636Z,24.26
2017-03-17T03:20:19.766Z,24.24
2017-03-17T03:20:47.895Z,24.21
2017-03-17T03:21:15.858Z,24.15
2017-03-17T03:21:43.762Z,24.19
2017-03-17T03:22:11.845Z,24.17
2017-03-17T03:22:40.085Z,24.14
2017-03-17T03:23:08.197Z,24.15
2017-03-17T03:23:36.333Z,24.08
2017-03-17T03:24:04.370Z,24.18
2017-03-17T03:24:32.549Z,24.09
2017-03-17T03:25:00.730Z,24.09
2017-03-17T03:25:28.736Z,24.09
2017-03-17T03:25:56.607Z,24.04
2017-03-17T03:26:24.738Z,24.07
2017-03-17T03:26:52.705Z,23.99
2017-03-17T03:27:20.778Z,24.04
2017-03-17T03:27:48.841Z,24.07
2017-03-17T03:28:16.784Z,24.03
2017-03-17T03:28:44.913Z,24.03
2017-03-17T03:29:13.053Z,23.99
2017-03-17T03:29:41.184Z,24.07
2017-03-17T03:30:09.426Z,23.96
2017-03-17T03:30:37.569Z,24.02
2017-03-17T03:31:05.603Z,23.96
2017-03-17T03:31:33.723Z,23.93
2017-03-17T03:32:01.941Z,23.92
2017-03-17T03:32:30.054Z,23.94
2017-03-17T03:32:58.298Z,23.89
2017-03-17T03:33:26.448Z,23.9
2017-03-17T03:33:54.661Z,23.89
2017-03-17T03:34:22.873Z,23.9
2017-03-17T03:34:51.029Z,23.89
2017-03-17T03:35:19.062Z,23.87
2017-03-17T03:35:47.449Z,23.93
2017-03-17T03:36:15.521Z,23.92
2017-03-17T03:36:43.543Z,23.87
2017-03-17T03:37:11.665Z,23.87
2017-03-17T03:37:39.888Z,23.9
2017-03-17T03:38:08.098Z,23.84
2017-03-17T03:38:36.339Z,23.9
2017-03-17T03:39:04.504Z,23.9
2017-03-17T03:39:32.570Z,23.85
2017-03-17T03:40:00.774Z,23.85
2017-03-17T03:40:29.131Z,23.79
2017-03-17T03:40:57.391Z,23.85
2017-03-17T03:41:25.561Z,23.87
2017-03-17T03:41:53.704Z,23.85
2017-03-17T03:42:21.866Z,23.81
2017-03-17T03:42:50.094Z,23.81
2017-03-17T03:43:18.135Z,23.87
2017-03-17T03:43:46.257Z,23.87
2017-03-17T03:44:14.487Z,23.87
2017-03-17T03:44:42.672Z,23.84
2017-03-17T03:45:10.687Z,23.81
2017-03-17T03:45:38.826Z,23.78
2017-03-17T03:46:07.078Z,23.92
2017-03-17T03:46:35.309Z,23.87
2017-03-17T03:47:03.437Z,23.85
2017-03-17T03:47:31.453Z,23.87
2017-03-17T03:47:59.695Z,23.85
2017-03-17T03:48:27.952Z,23.9
2017-03-17T03:48:55.992Z,23.9
2017-03-17T03:49:24.114Z,23.92
2017-03-17T03:49:52.217Z,23.93
2017-03-17T03:50:20.319Z,23.99
2017-03-17T03:50:48.564Z,23.97
2017-03-17T03:51:16.717Z,24.03
2017-03-17T03:51:44.888Z,24.04
2017-03-17T03:52:12.940Z,24.12
2017-03-17T03:52:41.107Z,24.17
2017-03-17T03:53:09.283Z,24.17
2017-03-17T03:53:37.299Z,24.18
2017-03-17T03:54:05.345Z,24.18
2017-03-17T03:54:33.470Z,24.32
2017-03-17T03:55:01.720Z,24.34
2017-03-17T03:55:29.795Z,24.29
2017-03-17T03:55:58.050Z,24.3
2017-03-17T03:56:26.174Z,24.39
2017-03-17T03:56:54.423Z,24.32
2017-03-17T03:57:22.562Z,24.29
2017-03-17T03:57:50.748Z,24.29
2017-03-17T03:58:19.012Z,24.39
2017-03-17T03:58:47.144Z,24.39
2017-03-17T03:59:15.259Z,24.42
2017-03-17T03:59:43.302Z,24.42
2017-03-17T04:00:11.528Z,24.48
2017-03-17T04:00:39.723Z,24.36
2017-03-17T04:01:07.846Z,24.4
2017-03-17T04:01:36.035Z,24.46
2017-03-17T04:02:04.130Z,24.44
2017-03-17T04:02:32.256Z,24.48
2017-03-17T04:03:00.433Z,24.48
2017-03-17T04:03:28.617Z,24.49
2017-03-17T04:03:56.814Z,24.56
2017-03-17T04:04:24.828Z,24.58
2017-03-17T04:04:53.089Z,24.54
2017-03-17T04:05:21.034Z,24.55
2017-03-17T04:05:49.399Z,24.61
2017-03-17T04:06:17.502Z,24.63
2017-03-17T04:06:45.578Z,24.64
2017-03-17T04:07:13.728Z,24.61
2017-03-17T04:07:41.791Z,24.63
2017-03-17T04:08:09.942Z,24.64
2017-03-17T04:08:38.106Z,24.69
2017-03-17T04:09:06.220Z,24.69
2017-03-17T04:09:34.346Z,24.7
2017-03-17T04:10:02.408Z,24.64
2017-03-17T04:10:30.647Z,24.71
2017-03-17T04:10:58.862Z,24.64
2017-03-17T04:11:26.971Z,24.69
2017-03-17T04:11:55.063Z,24.67
2017-03-17T04:12:23.301Z,24.64
2017-03-17T04:12:51.542Z,24.7
2017-03-17T04:13:19.759Z,24.66
2017-03-17T04:13:47.827Z,24.63
2017-03-17T04:14:15.859Z,24.61
2017-03-17T04:14:43.943Z,24.64
2017-03-17T04:15:12.167Z,24.55
2017-03-17T04:15:40.280Z,24.52
2017-03-17T04:16:08.698Z,24.61
2017-03-17T04:16:36.931Z,24.59
2017-03-17T04:17:05.200Z,24.55
2017-03-17T04:17:33.464Z,24.56
2017-03-17T04:18:01.632Z,24.58
2017-03-17T04:18:29.882Z,24.55
2017-03-17T04:18:58.133Z,24.52
2017-03-17T04:19:26.415Z,24.52
2017-03-17T04:19:54.757Z,24.52
2017-03-17T04:20:22.920Z,24.52
2017-03-17T04:20:51.157Z,24.49
2017-03-17T04:21:19.512Z,24.63
2017-03-17T04:21:47.603Z,24.52
2017-03-17T04:22:15.853Z,24.48
2017-03-17T04:22:44.008Z,24.49
2017-03-17T04:23:11.985Z,24.48
2017-03-17T04:23:39.936Z,24.48
2017-03-17T04:24:08.176Z,24.51
2017-03-17T04:24:36.309Z,24.46
2017-03-17T04:25:04.350Z,24.48
2017-03-17T04:25:32.625Z,24.44
2017-03-17T04:26:00.945Z,24.44
2017-03-17T04:26:28.980Z,24.42
2017-03-17T04:26:57.098Z,24.45
2017-03-17T04:27:25.225Z,24.46
2017-03-17T04:27:53.434Z,24.42
2017-03-17T04:28:21.631Z,24.32
2017-03-17T04:28:49.907Z,24.44
2017-03-17T04:29:18.121Z,24.44
2017-03-17T04:29:46.239Z,24.4
2017-03-17T04:30:14.430Z,24.4
2017-03-17T04:30:42.592Z,24.42
2017-03-17T04:31:10.809Z,24.49
2017-03-17T04:31:38.912Z,24.4
2017-03-17T04:32:07.020Z,24.4
2017-03-17T04:32:35.236Z,24.42
2017-03-17T04:33:03.362Z,24.45
2017-03-17T04:33:31.377Z,24.39
2017-03-17T04:33:59.537Z,24.4
2017-03-17T04:34:27.793Z,24.4
2017-03-17T04:34:55.835Z,24.4
2017-03-17T04:35:23.979Z,24.39
2017-03-17T04:35:52.207Z,24.44
2017-03-17T04:36:20.393Z,24.44
2017-03-17T04:36:48.617Z,24.44
2017-03-17T04:37:16.687Z,24.45
2017-03-17T04:37:44.796Z,24.42
2017-03-17T04:38:13.014Z,24.45
2017-03-17T04:38:41.205Z,24.44
2017-03-17T04:39:09.164Z,24.42
2017-03-17T04:39:37.399Z,24.45
2017-03-17T04:40:05.553Z,24.33
2017-03-17T04:40:33.678Z,24.4
2017-03-17T04:41:01.932Z,24.42
2017-03-17T04:41:30.440Z,24.45
2017-03-17T04:41:58.573Z,24.33
2017-03-17T04:42:26.754Z,24.29
2017-03-17T04:42:54.818Z,24.36
2017-03-17T04:43:23.039Z,24.4
2017-03-17T04:43:51.268Z,24.29
2017-03-17T04:44:19.329Z,24.33
2017-03-17T04:44:47.368Z,24.29
2017-03-17T04:45:15.498Z,24.32
2017-03-17T04:45:43.697Z,24.32
2017-03-17T04:46:11.735Z,24.34
2017-03-17T04:46:39.806Z,24.3
2017-03-17T04:47:08.019Z,24.15
2017-03-17T04:47:36.205Z,24.27
2017-03-17T04:48:04.328Z,24.19
2017-03-17T04:48:32.464Z,24.27
2017-03-17T04:49:00.501Z,24.22
2017-03-17T04:49:28.769Z,24.15
2017-03-17T04:49:56.878Z,24.15
2017-03-17T04:50:25.081Z,24.17
2017-03-17T04:50:53.133Z,24.19
2017-03-17T04:51:21.436Z,24.08
2017-03-17T04:51:49.592Z,24.11
2017-03-17T04:52:17.789Z,24.08
2017-03-17T04:52:45.735Z,24.02
2017-03-17T04:53:13.778Z,24.09
2017-03-17T04:53:41.829Z,24.04
2017-03-17T04:54:09.851Z,24.04
2017-03-17T04:54:38.069Z,24
2017-03-17T04:55:06.191Z,24.04
2017-03-17T04:55:34.427Z,24.04
2017-03-17T04:56:02.598Z,24.02
2017-03-17T04:56:30.953Z,24.04
2017-03-17T04:56:59.125Z,23.97
2017-03-17T04:57:27.273Z,24
2017-03-17T04:57:55.399Z,23.96
2017-03-17T04:58:23.592Z,23.97
2017-03-17T04:58:51.646Z,23.94
2017-03-17T04:59:19.623Z,23.94
2017-03-17T04:59:47.652Z,23.89
2017-03-17T05:00:15.849Z,23.89
2017-03-17T05:00:43.928Z,23.84
2017-03-17T05:01:11.962Z,23.85
2017-03-17T05:01:40.234Z,23.84
2017-03-17T05:02:08.395Z,23.85
2017-03-17T05:02:36.601Z,23.82
2017-03-17T05:03:04.716Z,23.75
2017-03-17T05:03:32.830Z,23.79
2017-03-17T05:04:00.947Z,23.78
2017-03-17T05:04:29.113Z,23.82
2017-03-17T05:04:57.276Z,23.82
2017-03-17T05:05:25.417Z,23.79
2017-03-17T05:05:53.566Z,23.79
2017-03-17T05:06:21.669Z,23.79
2017-03-17T05:06:49.679Z,23.74
2017-03-17T05:07:17.873Z,23.75
2017-03-17T05:07:45.826Z,23.72
2017-03-17T05:08:13.941Z,23.72
2017-03-17T05:08:41.892Z,23.74
2017-03-17T05:09:09.813Z,23.66
2017-03-17T05:09:37.863Z,23.56
2017-03-17T05:10:05.861Z,23.59
2017-03-17T05:10:33.915Z,23.62
2017-03-17T05:11:01.951Z,23.55
2017-03-17T05:11:30.080Z,23.52
2017-03-17T05:11:58.212Z,23.47
2017-03-17T05:12:26.195Z,23.45
2017-03-17T05:12:54.430Z,23.47
2017-03-17T05:13:22.448Z,23.41
2017-03-17T05:13:50.344Z,23.45
2017-03-17T05:14:18.441Z,23.37
2017-03-17T05:14:46.609Z,23.42
2017-03-17T05:15:14.790Z,23.48
2017-03-17T05:15:42.948Z,23.44
2017-03-17T05:16:11.192Z,23.38
2017-03-17T05:16:39.634Z,23.37
2017-03-17T05:17:07.579Z,23.28
2017-03-17T05:17:35.681Z,23.37
2017-03-17T05:18:03.914Z,23.32
2017-03-17T05:18:32.115Z,23.41
2017-03-17T05:19:00.259Z,23.28
2017-03-17T05:19:28.282Z,23.28
2017-03-17T05:19:56.515Z,23.32
2017-03-17T05:20:24.658Z,23.32
2017-03-17T05:20:52.822Z,23.21
2017-03-17T05:21:21.037Z,23.25
2017-03-17T05:21:49.141Z,23.22
2017-03-17T05:22:17.044Z,23.18
2017-03-17T05:22:45.319Z,23.16
2017-03-17T05:23:13.535Z,23.18
2017-03-17T05:23:41.688Z,23.14
2017-03-17T05:24:09.877Z,23.09
2017-03-17T05:24:37.957Z,23.12
2017-03-17T05:25:06.183Z,23.1
2017-03-17T05:25:34.261Z,23.16
2017-03-17T05:26:02.437Z,23.15
2017-03-17T05:26:30.664Z,23.16
2017-03-17T05:26:58.906Z,23.12
2017-03-17T05:27:27.121Z,23.15
2017-03-17T05:27:55.287Z,23.15
2017-03-17T05:28:23.547Z,23.07
2017-03-17T05:28:51.723Z,23.07
2017-03-17T05:29:19.939Z,23.04
2017-03-17T05:29:48.180Z,23.03
2017-03-17T05:30:16.226Z,22.97
2017-03-17T05:30:44.371Z,23.03
2017-03-17T05:31:12.493Z,22.99
2017-03-17T05:31:40.538Z,23.04
2017-03-17T05:32:08.587Z,22.96
2017-03-17T05:32:36.673Z,23.03
2017-03-17T05:33:04.904Z,22.97
2017-03-17T05:33:33.085Z,22.97
2017-03-17T05:34:01.243Z,22.96
2017-03-17T05:34:29.418Z,22.91
2017-03-17T05:34:57.604Z,22.89
2017-03-17T05:35:25.747Z,22.81
2017-03-17T05:35:53.881Z,22.91
2017-03-17T05:36:22.154Z,22.86
2017-03-17T05:36:50.347Z,22.89
2017-03-17T05:37:18.483Z,22.85
2017-03-17T05:37:46.581Z,22.82
2017-03-17T05:38:14.635Z,22.79
2017-03-17T05:38:42.888Z,22.78
2017-03-17T05:39:11.085Z,22.75
2017-03-17T05:39:39.318Z,22.75
2017-03-17T05:40:07.556Z,22.75
2017-03-17T05:40:35.707Z,22.81
2017-03-17T05:41:04.004Z,22.75
2017-03-17T05:41:32.143Z,22.7
2017-03-17T05:42:00.406Z,22.73
2017-03-17T05:42:28.515Z,22.79
2017-03-17T05:42:56.651Z,22.75
2017-03-17T05:43:24.814Z,22.76
2017-03-17T05:43:53.101Z,22.82
2017-03-17T05:44:21.294Z,22.84
2017-03-17T05:44:49.435Z,22.82
2017-03-17T05:45:17.366Z,22.76
2017-03-17T05:45:45.576Z,22.75
2017-03-17T05:46:13.701Z,22.78
2017-03-17T05:46:41.915Z,22.79
2017-03-17T05:47:10.401Z,22.78
2017-03-17T05:47:38.489Z,22.75
2017-03-17T05:48:06.689Z,22.82
2017-03-17T05:48:34.808Z,22.78
2017-03-17T05:49:02.952Z,22.81
2017-03-17T05:49:31.094Z,22.88
2017-03-17T05:49:59.250Z,22.79
2017-03-17T05:50:27.497Z,22.75
2017-03-17T05:50:55.702Z,22.76
2017-03-17T05:51:23.769Z,22.79
2017-03-17T05:51:52.090Z,22.79
2017-03-17T05:52:20.298Z,22.81
2017-03-17T05:52:48.422Z,22.73
2017-03-17T05:53:16.525Z,22.85
2017-03-17T05:53:44.772Z,22.76
2017-03-17T05:54:12.895Z,22.76
2017-03-17T05:54:41.200Z,22.86
2017-03-17T05:55:09.397Z,22.78
2017-03-17T05:55:37.462Z,22.78
2017-03-17T05:56:05.662Z,22.75
2017-03-17T05:56:33.705Z,22.81
2017-03-17T05:57:01.967Z,22.81
2017-03-17T05:57:30.217Z,22.82
2017-03-17T05:57:58.344Z,22.71
2017-03-17T05:58:26.481Z,22.7
2017-03-17T05:58:54.662Z,22.67
2017-03-17T05:59:22.765Z,22.69
2017-03-17T05:59:51.009Z,22.7
2017-03-17T06:00:19.118Z,22.7
2017-03-17T06:00:47.363Z,22.69
2017-03-17T06:01:15.579Z,22.69
2017-03-17T06:01:43.816Z,22.69
2017-03-17T06:02:12.038Z,22.7
2017-03-17T06:02:40.355Z,22.63
2017-03-17T06:03:08.382Z,22.69
2017-03-17T06:03:36.551Z,22.64
2017-03-17T06:04:04.730Z,22.67
2017-03-17T06:04:32.990Z,22.63
2017-03-17T06:05:01.223Z,22.7